Latest Weather Observations for Red Rocks Point

IDW60801

Issued at 8:02 am WST Tuesday 31 May 2016 (issued every 30 minutes, with the page automatically refreshed every 10 minutes)

About weather observations | Map of weather stations | Latest weather observations for WA | Other Formats
Station Details ID: 011053 Name: RED ROCKS POINT Lat: -32.20 Lon: 127.53 Height: 3.1 m
Data from the previous 72 hours. | See also: Recent months at Red Rocks Point
Date/Time
WST
Temp
°C
App
Temp
°C
Dew
Point
Rel
Hum
%
Delta-T
°C
Wind Press
QNH
hPa
Press
MSL
hPa
Rain
since 9 am
mm
Dir
 
Spd
km/h
Gust
km/h
Spd
kts
Gust
kts
31/08:00am 10.1 6.9 8.5 90 0.8 NW 15 20 8 11 1022.6 1022.6 0.2
31/07:30am 8.5 4.3 7.4 93 0.5 NW 19 22 10 12 1022.4 1022.4 0.2
31/07:00am 7.2 2.6 6.5 95 0.3 NW 20 24 11 13 1021.9 1021.9 0.2
31/06:30am 6.1 1.3 5.4 95 0.3 NW 20 24 11 13 1021.7 1021.7 0.2
31/06:00am 6.4 1.6 5.7 95 0.3 NW 20 24 11 13 1021.5 1021.5 0.2
31/05:30am 6.3 1.5 5.6 95 0.3 NW 20 24 11 13 1021.3 1021.3 0.2
31/05:00am 6.7 2.2 6.0 95 0.3 NW 19 22 10 12 1020.9 1020.9 0.2
31/04:30am 6.6 2.0 5.7 94 0.4 NW 19 20 10 11 1020.7 1020.7 0.2
31/04:00am 6.6 2.4 5.6 93 0.4 NW 17 20 9 11 1020.5 1020.5 0.2
31/03:30am 7.2 3.1 6.0 92 0.5 NW 17 22 9 12 1020.5 1020.5 0.2
31/03:00am 7.7 4.0 6.5 92 0.5 NW 15 19 8 10 1020.5 1020.5 0.2
31/02:30am 8.5 5.4 7.3 92 0.6 WNW 13 19 7 10 1020.5 1020.5 0.2
31/02:00am 8.2 4.7 7.1 93 0.5 NW 15 19 8 10 1020.6 1020.6 0.2
31/01:30am 8.5 5.0 7.4 93 0.5 NW 15 17 8 9 1020.5 1020.5 0.2
31/01:00am 9.2 6.3 8.1 93 0.5 NW 13 17 7 9 1020.5 1020.5 0.2
31/12:30am 9.2 5.9 8.1 93 0.5 NW 15 20 8 11 1020.5 1020.5 0.2
31/12:00am 8.4 4.5 7.2 92 0.6 WNW 17 19 9 10 1020.6 1020.6 0.2
 
Date/Time
WST
Temp
°C
App
Temp
°C
Dew
Point
Rel
Hum
%
Delta-T
°C
Wind Press
QNH
hPa
Press
MSL
hPa
Rain
since 9 am
mm
Dir
 
Spd
km/h
Gust
km/h
Spd
kts
Gust
kts
30/11:30pm 8.2 4.3 7.0 92 0.6 WNW 17 19 9 10 1020.5 1020.5 0.2
30/11:00pm 8.7 5.2 7.3 91 0.7 WNW 15 19 8 10 1020.6 1020.6 0.2
30/10:30pm 9.3 5.6 7.9 91 0.7 NW 17 19 9 10 1020.5 1020.5 0.2
30/10:00pm 9.0 5.6 7.5 90 0.7 NW 15 19 8 10 1020.6 1020.6 0.2
30/09:30pm 9.0 5.2 7.5 90 0.7 NW 17 20 9 11 1020.5 1020.5 0.2
30/09:00pm 9.1 5.7 7.7 91 0.7 NW 15 17 8 9 1020.6 1020.6 0.2
30/08:30pm 8.9 5.4 7.4 90 0.7 WNW 15 17 8 9 1020.7 1020.7 0.2
30/08:00pm 9.2 5.4 7.6 90 0.8 WNW 17 19 9 10 1020.4 1020.4 0.2
30/07:30pm 9.4 6.0 7.8 90 0.8 WNW 15 17 8 9 1020.4 1020.4 0.2
30/07:00pm 9.7 6.4 8.0 89 0.8 NW 15 17 8 9 1020.3 1020.3 0.2
30/06:30pm 10.0 6.8 8.3 89 0.8 WNW 15 15 8 8 1020.1 1020.1 0.2
30/06:00pm 10.1 7.3 8.4 89 0.8 NW 13 13 7 7 1019.8 1019.8 0.2
30/05:30pm 10.9 8.9 8.7 86 1.1 WNW 9 13 5 7 1019.6 1019.6 0.2
30/05:00pm 12.2 10.0 9.2 82 1.5 WNW 11 13 6 7 1019.2 1019.2 0.2
30/04:30pm 13.2 11.4 9.5 78 1.9 W 9 13 5 7 1019.0 1019.0 0.2
30/04:00pm 14.7 12.5 9.5 71 2.7 WSW 11 17 6 9 1018.7 1018.7 0.2
30/03:30pm 14.6 12.0 10.6 77 2.1 W 15 26 8 14 1018.5 1018.5 0.2
30/03:00pm 14.4 11.5 9.8 74 2.4 WSW 15 22 8 12 1018.2 1018.2 0.2
30/02:30pm 15.0 13.6 10.8 76 2.2 W 9 15 5 8 1018.1 1018.1 0.0
30/02:00pm 16.0 13.0 9.2 64 3.5 WSW 15 24 8 13 1018.0 1018.0 0.0
30/01:30pm 16.1 12.2 9.5 65 3.4 WSW 20 30 11 16 1017.7 1017.7 0.0
30/01:00pm 16.4 12.8 9.8 65 3.4 WSW 19 28 10 15 1017.7 1017.7 0.0
30/12:30pm 16.4 12.4 9.1 62 3.8 WSW 20 28 11 15 1017.9 1017.9 0.0
30/12:00pm 16.8 13.5 9.7 63 3.7 WSW 17 22 9 12 1018.0 1018.0 0.0
30/11:30am 15.8 12.9 9.5 66 3.3 WSW 15 20 8 11 1018.3 1018.3 0.0
30/11:00am 16.4 13.0 9.3 63 3.7 WSW 17 24 9 13 1018.6 1018.6 0.0
30/10:30am 16.6 12.9 9.5 63 3.7 SW 19 26 10 14 1018.8 1018.8 0.0
30/10:00am 17.3 13.5 7.6 53 4.9 WSW 17 26 9 14 1018.8 1018.8 0.0
30/09:30am 15.3 12.8 9.7 69 2.9 W 13 20 7 11 1019.1 1019.1 0.0
30/09:00am 14.4 12.1 10.6 78 2.0 NW 13 17 7 9 1019.1 1019.1 0.6
30/08:30am 12.3 9.5 10.0 86 1.2 NW 15 20 8 11 1019.1 1019.1 0.6
30/08:00am 10.2 6.8 9.1 93 0.5 NW 17 20 9 11 1018.7 1018.7 0.6
30/07:30am 8.7 5.0 7.9 95 0.4 NW 17 22 9 12 1018.7 1018.7 0.6
30/07:00am 7.9 4.8 7.1 95 0.4 NW 13 17 7 9 1018.5 1018.5 0.6
30/06:30am 8.0 4.9 7.2 95 0.4 WNW 13 20 7 11 1018.2 1018.2 0.6
30/06:00am 7.9 4.0 7.1 95 0.4 NW 17 20 9 11 1017.9 1017.9 0.4
30/05:30am 8.2 4.7 7.4 95 0.4 NW 15 20 8 11 1017.7 1017.7 0.4
30/05:00am 8.4 5.0 7.6 95 0.4 NW 15 20 8 11 1017.4 1017.4 0.4
30/04:30am 8.7 5.7 7.9 95 0.4 NW 13 17 7 9 1017.3 1017.3 0.4
30/04:00am 8.8 5.5 8.0 95 0.4 NW 15 19 8 10 1017.2 1017.2 0.4
30/03:30am 8.4 5.0 7.6 95 0.4 WNW 15 19 8 10 1017.2 1017.2 0.4
30/03:00am 8.4 5.4 7.5 94 0.4 NW 13 17 7 9 1017.1 1017.1 0.4
30/02:30am 9.1 6.2 8.2 94 0.4 NW 13 17 7 9 1017.3 1017.3 0.4
30/02:00am 9.1 5.8 8.2 94 0.4 NW 15 19 8 10 1017.3 1017.3 0.4
30/01:30am 9.1 5.8 8.2 94 0.4 NW 15 19 8 10 1017.3 1017.3 0.4
30/01:00am 9.1 5.8 8.2 94 0.4 WNW 15 17 8 9 1017.3 1017.3 0.4
30/12:30am 9.5 6.7 8.6 94 0.4 NW 13 17 7 9 1017.4 1017.4 0.4
30/12:00am 9.7 6.5 8.6 93 0.5 NW 15 22 8 12 1017.5 1017.5 0.2
 
Date/Time
WST
Temp
°C
App
Temp
°C
Dew
Point
Rel
Hum
%
Delta-T
°C
Wind Press
QNH
hPa
Press
MSL
hPa
Rain
since 9 am
mm
Dir
 
Spd
km/h
Gust
km/h
Spd
kts
Gust
kts
29/11:30pm 10.0 7.3 8.8 92 0.6 NW 13 17 7 9 1017.5 1017.5 0.2
29/11:00pm 10.4 7.7 9.0 91 0.7 NW 13 17 7 9 1017.5 1017.5 0.2
29/10:30pm 10.8 8.2 9.4 91 0.7 NW 13 17 7 9 1017.5 1017.5 0.2
29/10:00pm 11.8 9.8 10.2 90 0.8 WNW 11 17 6 9 1017.5 1017.5 0.2
29/09:30pm 11.8 9.6 9.5 86 1.2 NW 11 15 6 8 1017.8 1017.8 0.0
29/09:00pm 13.6 11.5 11.3 86 1.2 W 13 19 7 10 1017.7 1017.7 0.0
29/08:30pm 13.5 11.7 10.7 83 1.5 W 11 15 6 8 1017.5 1017.5 0.0
29/08:00pm 15.0 12.8 10.8 76 2.2 WSW 13 19 7 10 1017.3 1017.3 0.0
29/07:30pm 14.9 11.7 10.1 73 2.5 SW 17 24 9 13 1017.0 1017.0 0.0
29/07:00pm 15.0 11.6 10.6 75 2.3 WSW 19 28 10 15 1016.8 1016.8 0.0
29/06:30pm 15.2 11.9 11.0 76 2.2 WSW 19 30 10 16 1016.6 1016.6 0.0
29/06:00pm 15.0 12.5 11.0 77 2.1 WSW 15 20 8 11 1016.3 1016.3 0.0
29/05:30pm 15.4 12.2 11.4 77 2.1 SW 19 28 10 15 1016.0 1016.0 0.0
29/05:00pm 15.3 12.5 10.1 71 2.7 WSW 15 24 8 13 1015.6 1015.6 0.0
29/04:30pm 15.5 12.4 10.3 71 2.7 WSW 17 24 9 13 1015.2 1015.2 0.0
29/04:00pm 16.3 12.8 10.2 67 3.2 WSW 19 30 10 16 1014.9 1014.9 0.0
29/03:30pm 17.0 13.4 10.4 65 3.5 WSW 20 32 11 17 1014.8 1014.8 0.0
29/03:00pm 17.6 13.9 10.0 61 4.0 WSW 20 32 11 17 1014.5 1014.5 0.0
29/02:30pm 17.8 13.3 10.2 61 4.0 WSW 24 35 13 19 1014.3 1014.3 0.0
29/02:00pm 18.1 13.5 11.2 64 3.7 WSW 26 39 14 21 1014.1 1014.1 0.0
29/01:30pm 18.4 13.8 11.2 63 3.9 WSW 26 35 14 19 1014.0 1014.0 0.0
29/01:00pm 18.4 14.3 11.5 64 3.8 WSW 24 39 13 21 1014.1 1014.1 0.0
29/12:30pm 18.6 14.1 11.4 63 3.9 WSW 26 37 14 20 1014.2 1014.2 0.0
29/12:00pm 18.3 13.3 9.6 57 4.6 WSW 26 37 14 20 1014.2 1014.2 0.0
29/11:30am 17.4 12.7 9.3 59 4.2 WSW 24 35 13 19 1014.4 1014.4 0.0
29/11:00am 18.4 13.9 10.0 58 4.5 WSW 24 35 13 19 1014.7 1014.7 0.0
29/10:30am 18.7 15.0 11.5 63 3.9 WSW 22 33 12 18 1014.9 1014.9 0.0
29/10:00am 18.8 15.2 10.6 59 4.4 W 20 26 11 14 1015.0 1015.0 0.0
29/09:30am 17.9 15.8 12.4 70 3.0 W 15 26 8 14 1015.0 1015.0 0.0
29/09:00am 16.4 14.0 12.8 79 2.0 WNW 17 26 9 14 1015.0 1015.0 0.6
29/08:30am 14.8 12.5 11.6 81 1.7 WNW 15 24 8 13 1014.8 1014.8 0.6
29/08:00am 12.6 9.9 10.3 86 1.2 NW 15 19 8 10 1014.7 1014.7 0.6
29/07:30am 11.2 8.2 9.3 88 1.0 NW 15 19 8 10 1014.5 1014.5 0.6
29/07:00am 9.7 6.0 8.1 90 0.8 NW 17 20 9 11 1014.3 1014.3 0.6
29/06:30am 8.6 4.3 7.2 91 0.7 NW 19 20 10 11 1014.0 1014.0 0.6
29/06:00am 8.9 5.1 7.5 91 0.7 NW 17 19 9 10 1013.7 1013.7 0.6
29/05:30am 9.0 5.2 7.5 90 0.7 NW 17 20 9 11 1013.3 1013.3 0.6
29/05:00am 10.0 6.3 7.9 87 1.0 NW 17 17 9 9 1012.8 1012.8 0.6
29/04:30am 9.9 6.2 7.8 87 1.0 NW 17 20 9 11 1012.6 1012.6 0.6
29/04:00am 10.5 6.9 8.4 87 1.0 NNW 17 20 9 11 1012.5 1012.5 0.6
29/03:30am 10.7 7.2 8.8 88 0.9 NNW 17 19 9 10 1012.4 1012.4 0.6
29/03:00am 11.0 7.9 8.9 87 1.0 NNW 15 17 8 9 1012.3 1012.3 0.6
29/02:30am 11.2 8.1 8.8 85 1.2 NNW 15 17 8 9 1012.5 1012.5 0.4
29/02:00am 11.3 8.9 8.7 84 1.3 NW 11 11 6 6 1012.4 1012.4 0.4
29/01:30am 11.5 8.8 9.1 85 1.2 NNW 13 15 7 8 1012.4 1012.4 0.4
29/01:00am 11.3 9.1 9.2 87 1.0 NW 11 13 6 7 1012.6 1012.6 0.4
29/12:30am 11.6 9.1 9.7 88 1.0 NNW 13 15 7 8 1012.9 1012.9 0.4
29/12:00am 11.5 8.9 9.4 87 1.1 NW 13 15 7 8 1013.0 1013.0 0.4
 
Date/Time
WST
Temp
°C
App
Temp
°C
Dew
Point
Rel
Hum
%
Delta-T
°C
Wind Press
QNH
hPa
Press
MSL
hPa
Rain
since 9 am
mm
Dir
 
Spd
km/h
Gust
km/h
Spd
kts
Gust
kts
28/11:30pm 11.6 10.1 9.0 84 1.3 NW 7 9 4 5 1013.3 1013.3 0.2
28/11:00pm 12.0 10.1 9.0 82 1.5 WNW 9 11 5 6 1013.7 1013.7 0.0
28/10:30pm 12.9 10.4 8.0 72 2.4 NNW 11 15 6 8 1013.8 1013.8 0.0
28/10:00pm 13.5 10.0 7.1 65 3.1 NNW 15 20 8 11 1013.3 1013.3 0.0
28/09:30pm 13.1 9.8 6.2 63 3.3 N 13 19 7 10 1012.7 1012.7 0.0
28/09:00pm 13.4 10.1 6.3 62 3.4 N 13 20 7 11 1012.9 1012.9 0.0
28/08:30pm 13.3 10.4 6.4 63 3.3 N 11 15 6 8 1013.3 1013.3 0.0
28/08:00pm 13.7 10.8 6.3 61 3.5 NNE 11 15 6 8 1013.4 1013.4 0.0
28/07:30pm 14.1 11.2 6.5 60 3.7 N 11 15 6 8 1013.7 1013.7 0.0
28/07:00pm 13.6 10.6 6.2 61 3.5 N 11 13 6 7 1013.9 1013.9 0.0
28/06:30pm 13.8 11.2 5.9 59 3.7 N 9 11 5 6 1014.0 1014.0 0.0
28/06:00pm 14.3 11.7 5.9 57 4.0 N 9 11 5 6 1013.8 1013.8 0.0
28/05:30pm 15.4 12.4 6.2 54 4.4 NNE 11 13 6 7 1013.6 1013.6 0.0
28/05:00pm 15.8 13.6 6.0 52 4.7 N 7 9 4 5 1013.6 1013.6 0.0
28/04:30pm 17.0 14.4 5.9 48 5.4 N 9 15 5 8 1013.6 1013.6 0.0
28/04:00pm 17.7 14.4 6.6 48 5.5 N 13 22 7 12 1013.7 1013.7 0.0
28/03:30pm 18.1 14.0 6.0 45 5.9 N 17 28 9 15 1014.0 1014.0 0.0
28/03:00pm 18.5 14.5 6.7 46 5.9 NNW 17 26 9 14 1014.1 1014.1 0.0
28/02:30pm 18.5 15.0 7.3 48 5.7 NNW 15 22 8 12 1014.2 1014.2 0.0
28/02:00pm 18.4 14.5 7.2 48 5.6 NNW 17 26 9 14 1014.4 1014.4 0.0
28/01:30pm 18.4 14.8 6.9 47 5.8 NNW 15 24 8 13 1014.8 1014.8 0.0
28/01:00pm 18.5 14.1 7.6 49 5.5 NNW 20 32 11 17 1015.2 1015.2 0.0
28/12:30pm 19.4 15.6 7.5 46 6.1 N 17 28 9 15 1015.8 1015.8 0.0
28/12:00pm 18.2 14.2 8.2 52 5.1 NNW 19 28 10 15 1016.1 1016.1 0.0
28/11:30am 17.9 14.0 9.3 57 4.5 N 20 32 11 17 1016.7 1016.7 0.0
28/11:00am 17.4 14.0 9.3 59 4.2 N 17 28 9 15 1017.3 1017.3 0.0
28/10:30am 17.0 13.3 9.4 61 4.0 N 19 28 10 15 1017.8 1017.8 0.0
28/10:00am 17.2 13.5 10.1 63 3.7 N 20 28 11 15 1018.2 1018.2 0.0
28/09:30am 15.7 11.8 9.6 67 3.2 N 20 32 11 17 1018.7 1018.7 0.0
28/09:00am 14.2 10.2 9.2 72 2.5 N 20 28 11 15 1019.4 1019.4 1.0
28/08:30am 12.4 9.6 10.0 85 1.2 N 15 20 8 11 1019.9 1019.9 1.0

Other Formats:

Comma delimited format used in spreadsheet applications
http://www.bom.gov.au/fwo/IDW60801/IDW60801.94644.axf

JavaScript Object Notation format (JSON) in row-major order
http://www.bom.gov.au/fwo/IDW60801/IDW60801.94644.json